sensor_id;sensor_type;location;lat;lon;timestamp;P1;durP1;ratioP1;P2;durP2;ratioP2
76765;SDS011;65707;52.362;6.588;2023-05-20T00:00:59;9.43;;;3.20;;
76765;SDS011;65707;52.362;6.588;2023-05-20T00:03:32;10.80;;;3.50;;
76765;SDS011;65707;52.362;6.588;2023-05-20T00:05:59;11.45;;;3.03;;
76765;SDS011;65707;52.362;6.588;2023-05-20T00:08:28;9.57;;;3.00;;
76765;SDS011;65707;52.362;6.588;2023-05-20T00:10:55;10.68;;;3.10;;
76765;SDS011;65707;52.362;6.588;2023-05-20T00:13:22;11.48;;;2.85;;
76765;SDS011;65707;52.362;6.588;2023-05-20T00:15:49;11.63;;;3.20;;
76765;SDS011;65707;52.362;6.588;2023-05-20T00:18:17;11.57;;;3.08;;
76765;SDS011;65707;52.362;6.588;2023-05-20T00:20:43;10.98;;;2.90;;
76765;SDS011;65707;52.362;6.588;2023-05-20T00:23:10;9.98;;;3.10;;
76765;SDS011;65707;52.362;6.588;2023-05-20T00:25:38;11.95;;;3.08;;
76765;SDS011;65707;52.362;6.588;2023-05-20T00:28:06;14.15;;;3.40;;
76765;SDS011;65707;52.362;6.588;2023-05-20T00:30:40;8.30;;;2.90;;
76765;SDS011;65707;52.362;6.588;2023-05-20T00:33:07;11.25;;;3.05;;
76765;SDS011;65707;52.362;6.588;2023-05-20T00:35:35;10.32;;;2.90;;
76765;SDS011;65707;52.362;6.588;2023-05-20T00:38:04;8.25;;;2.75;;
76765;SDS011;65707;52.362;6.588;2023-05-20T00:40:35;12.55;;;2.67;;
76765;SDS011;65707;52.362;6.588;2023-05-20T00:43:03;10.80;;;2.83;;
76765;SDS011;65707;52.362;6.588;2023-05-20T00:45:32;12.52;;;2.95;;
76765;SDS011;65707;52.362;6.588;2023-05-20T00:47:59;8.27;;;3.00;;
76765;SDS011;65707;52.362;6.588;2023-05-20T00:50:28;7.93;;;2.67;;
76765;SDS011;65707;52.362;6.588;2023-05-20T00:52:57;9.85;;;3.13;;
76765;SDS011;65707;52.362;6.588;2023-05-20T00:55:29;9.85;;;3.25;;
76765;SDS011;65707;52.362;6.588;2023-05-20T00:58:00;7.60;;;2.53;;
76765;SDS011;65707;52.362;6.588;2023-05-20T01:00:32;11.93;;;3.33;;
76765;SDS011;65707;52.362;6.588;2023-05-20T01:02:59;10.57;;;3.10;;
76765;SDS011;65707;52.362;6.588;2023-05-20T01:05:26;8.93;;;2.95;;
76765;SDS011;65707;52.362;6.588;2023-05-20T01:07:56;7.97;;;2.63;;
76765;SDS011;65707;52.362;6.588;2023-05-20T01:12:54;11.68;;;3.10;;
76765;SDS011;65707;52.362;6.588;2023-05-20T01:15:28;10.77;;;3.58;;
76765;SDS011;65707;52.362;6.588;2023-05-20T01:17:56;15.85;;;3.10;;
76765;SDS011;65707;52.362;6.588;2023-05-20T01:20:30;7.20;;;2.60;;
76765;SDS011;65707;52.362;6.588;2023-05-20T01:23:01;9.35;;;3.00;;
76765;SDS011;65707;52.362;6.588;2023-05-20T01:25:28;9.10;;;2.92;;
76765;SDS011;65707;52.362;6.588;2023-05-20T01:27:55;9.77;;;2.80;;
76765;SDS011;65707;52.362;6.588;2023-05-20T01:30:23;8.57;;;3.05;;
76765;SDS011;65707;52.362;6.588;2023-05-20T01:32:57;8.43;;;2.85;;
76765;SDS011;65707;52.362;6.588;2023-05-20T01:35:31;11.25;;;3.05;;
76765;SDS011;65707;52.362;6.588;2023-05-20T01:37:58;11.15;;;3.05;;
76765;SDS011;65707;52.362;6.588;2023-05-20T01:40:29;7.88;;;2.78;;
76765;SDS011;65707;52.362;6.588;2023-05-20T01:42:57;10.32;;;3.00;;
76765;SDS011;65707;52.362;6.588;2023-05-20T01:45:26;8.98;;;2.88;;
76765;SDS011;65707;52.362;6.588;2023-05-20T01:47:53;8.60;;;2.80;;
76765;SDS011;65707;52.362;6.588;2023-05-20T01:50:22;9.02;;;2.90;;
76765;SDS011;65707;52.362;6.588;2023-05-20T01:52:50;7.25;;;2.35;;
76765;SDS011;65707;52.362;6.588;2023-05-20T01:55:17;8.73;;;2.75;;
76765;SDS011;65707;52.362;6.588;2023-05-20T01:57:45;7.65;;;2.72;;
76765;SDS011;65707;52.362;6.588;2023-05-20T02:00:12;9.52;;;2.97;;
76765;SDS011;65707;52.362;6.588;2023-05-20T02:02:41;10.20;;;3.33;;
76765;SDS011;65707;52.362;6.588;2023-05-20T02:05:10;9.05;;;3.10;;
76765;SDS011;65707;52.362;6.588;2023-05-20T02:07:38;10.68;;;2.83;;
76765;SDS011;65707;52.362;6.588;2023-05-20T02:10:05;10.77;;;3.42;;
76765;SDS011;65707;52.362;6.588;2023-05-20T02:12:35;9.13;;;3.15;;
76765;SDS011;65707;52.362;6.588;2023-05-20T02:15:04;9.98;;;3.20;;
76765;SDS011;65707;52.362;6.588;2023-05-20T02:17:34;7.55;;;2.45;;
76765;SDS011;65707;52.362;6.588;2023-05-20T02:20:19;8.75;;;2.63;;
76765;SDS011;65707;52.362;6.588;2023-05-20T02:22:46;13.00;;;2.85;;
76765;SDS011;65707;52.362;6.588;2023-05-20T02:25:13;10.15;;;3.08;;
76765;SDS011;65707;52.362;6.588;2023-05-20T02:27:42;9.98;;;2.72;;
76765;SDS011;65707;52.362;6.588;2023-05-20T02:30:13;11.85;;;3.20;;
76765;SDS011;65707;52.362;6.588;2023-05-20T02:32:43;10.63;;;3.10;;
76765;SDS011;65707;52.362;6.588;2023-05-20T02:35:10;10.07;;;2.85;;
76765;SDS011;65707;52.362;6.588;2023-05-20T02:37:36;9.80;;;2.78;;
76765;SDS011;65707;52.362;6.588;2023-05-20T02:40:04;10.93;;;3.03;;
76765;SDS011;65707;52.362;6.588;2023-05-20T02:42:34;9.65;;;3.10;;
76765;SDS011;65707;52.362;6.588;2023-05-20T02:45:01;10.40;;;2.95;;
76765;SDS011;65707;52.362;6.588;2023-05-20T02:47:29;8.18;;;3.00;;
76765;SDS011;65707;52.362;6.588;2023-05-20T02:49:55;11.00;;;2.80;;
76765;SDS011;65707;52.362;6.588;2023-05-20T02:52:22;8.93;;;2.83;;
76765;SDS011;65707;52.362;6.588;2023-05-20T02:54:49;8.95;;;2.70;;
76765;SDS011;65707;52.362;6.588;2023-05-20T02:57:20;9.80;;;2.70;;
76765;SDS011;65707;52.362;6.588;2023-05-20T02:59:47;10.27;;;3.25;;
76765;SDS011;65707;52.362;6.588;2023-05-20T03:02:14;9.52;;;2.67;;
76765;SDS011;65707;52.362;6.588;2023-05-20T03:04:42;7.68;;;2.88;;
76765;SDS011;65707;52.362;6.588;2023-05-20T03:07:12;8.65;;;3.00;;
76765;SDS011;65707;52.362;6.588;2023-05-20T03:09:38;7.38;;;2.65;;
76765;SDS011;65707;52.362;6.588;2023-05-20T03:12:07;7.57;;;2.35;;
76765;SDS011;65707;52.362;6.588;2023-05-20T03:14:34;9.00;;;2.60;;
76765;SDS011;65707;52.362;6.588;2023-05-20T03:17:05;9.18;;;2.38;;
76765;SDS011;65707;52.362;6.588;2023-05-20T03:19:31;9.38;;;3.10;;
76765;SDS011;65707;52.362;6.588;2023-05-20T03:21:59;7.97;;;2.42;;
76765;SDS011;65707;52.362;6.588;2023-05-20T03:24:31;10.05;;;3.00;;
76765;SDS011;65707;52.362;6.588;2023-05-20T03:26:58;9.88;;;2.70;;
76765;SDS011;65707;52.362;6.588;2023-05-20T03:29:25;8.63;;;2.38;;
76765;SDS011;65707;52.362;6.588;2023-05-20T03:31:52;6.82;;;2.38;;
76765;SDS011;65707;52.362;6.588;2023-05-20T03:34:18;7.45;;;2.40;;
76765;SDS011;65707;52.362;6.588;2023-05-20T03:36:47;7.18;;;2.70;;
76765;SDS011;65707;52.362;6.588;2023-05-20T03:39:17;8.85;;;2.72;;
76765;SDS011;65707;52.362;6.588;2023-05-20T03:41:44;6.88;;;2.85;;
76765;SDS011;65707;52.362;6.588;2023-05-20T03:44:14;7.63;;;2.65;;
76765;SDS011;65707;52.362;6.588;2023-05-20T03:49:10;5.85;;;2.17;;
76765;SDS011;65707;52.362;6.588;2023-05-20T03:51:36;11.32;;;2.92;;
76765;SDS011;65707;52.362;6.588;2023-05-20T03:54:04;9.55;;;2.90;;
76765;SDS011;65707;52.362;6.588;2023-05-20T03:56:34;7.18;;;2.35;;
76765;SDS011;65707;52.362;6.588;2023-05-20T03:59:01;8.13;;;2.40;;
76765;SDS011;65707;52.362;6.588;2023-05-20T04:01:28;7.60;;;2.60;;
76765;SDS011;65707;52.362;6.588;2023-05-20T04:03:54;7.60;;;2.47;;
76765;SDS011;65707;52.362;6.588;2023-05-20T04:06:21;8.38;;;2.33;;
76765;SDS011;65707;52.362;6.588;2023-05-20T04:08:52;7.57;;;2.40;;
76765;SDS011;65707;52.362;6.588;2023-05-20T04:11:19;8.35;;;2.17;;
76765;SDS011;65707;52.362;6.588;2023-05-20T04:13:47;7.00;;;2.00;;
76765;SDS011;65707;52.362;6.588;2023-05-20T04:16:14;8.07;;;2.45;;
76765;SDS011;65707;52.362;6.588;2023-05-20T04:18:42;7.78;;;2.13;;
76765;SDS011;65707;52.362;6.588;2023-05-20T04:21:10;9.02;;;2.90;;
76765;SDS011;65707;52.362;6.588;2023-05-20T04:23:40;6.43;;;2.08;;
76765;SDS011;65707;52.362;6.588;2023-05-20T04:26:07;7.47;;;2.38;;
76765;SDS011;65707;52.362;6.588;2023-05-20T04:28:34;8.57;;;3.22;;
76765;SDS011;65707;52.362;6.588;2023-05-20T04:31:03;6.03;;;2.10;;
76765;SDS011;65707;52.362;6.588;2023-05-20T04:33:33;7.20;;;1.95;;
76765;SDS011;65707;52.362;6.588;2023-05-20T04:36:02;6.95;;;1.95;;
76765;SDS011;65707;52.362;6.588;2023-05-20T04:38:31;6.40;;;2.00;;
76765;SDS011;65707;52.362;6.588;2023-05-20T04:41:00;6.18;;;2.00;;
76765;SDS011;65707;52.362;6.588;2023-05-20T04:43:32;8.25;;;2.20;;
76765;SDS011;65707;52.362;6.588;2023-05-20T04:45:59;8.18;;;2.70;;
76765;SDS011;65707;52.362;6.588;2023-05-20T04:48:31;6.32;;;2.13;;
76765;SDS011;65707;52.362;6.588;2023-05-20T04:50:58;8.25;;;2.20;;
76765;SDS011;65707;52.362;6.588;2023-05-20T04:53:30;6.88;;;2.00;;
76765;SDS011;65707;52.362;6.588;2023-05-20T04:56:00;7.00;;;2.35;;
76765;SDS011;65707;52.362;6.588;2023-05-20T04:58:28;6.10;;;2.10;;
76765;SDS011;65707;52.362;6.588;2023-05-20T05:00:57;11.68;;;2.70;;
76765;SDS011;65707;52.362;6.588;2023-05-20T05:03:25;6.57;;;1.83;;
76765;SDS011;65707;52.362;6.588;2023-05-20T05:05:55;8.18;;;2.10;;
76765;SDS011;65707;52.362;6.588;2023-05-20T05:08:22;9.23;;;2.30;;
76765;SDS011;65707;52.362;6.588;2023-05-20T05:10:56;7.07;;;2.20;;
76765;SDS011;65707;52.362;6.588;2023-05-20T05:13:22;5.65;;;1.77;;
76765;SDS011;65707;52.362;6.588;2023-05-20T05:15:56;6.60;;;2.08;;
76765;SDS011;65707;52.362;6.588;2023-05-20T05:18:24;7.60;;;2.10;;
76765;SDS011;65707;52.362;6.588;2023-05-20T05:21:01;7.10;;;2.35;;
76765;SDS011;65707;52.362;6.588;2023-05-20T05:23:29;6.68;;;2.00;;
76765;SDS011;65707;52.362;6.588;2023-05-20T05:25:57;8.02;;;1.90;;
76765;SDS011;65707;52.362;6.588;2023-05-20T05:28:26;5.88;;;2.17;;
76765;SDS011;65707;52.362;6.588;2023-05-20T05:30:53;7.55;;;1.92;;
76765;SDS011;65707;52.362;6.588;2023-05-20T05:33:22;7.63;;;2.08;;
76765;SDS011;65707;52.362;6.588;2023-05-20T05:35:52;5.60;;;1.88;;
76765;SDS011;65707;52.362;6.588;2023-05-20T05:38:22;7.50;;;2.00;;
76765;SDS011;65707;52.362;6.588;2023-05-20T05:40:48;5.82;;;1.77;;
76765;SDS011;65707;52.362;6.588;2023-05-20T05:43:15;6.20;;;1.70;;
76765;SDS011;65707;52.362;6.588;2023-05-20T05:45:42;6.82;;;2.00;;
76765;SDS011;65707;52.362;6.588;2023-05-20T05:48:08;7.43;;;1.65;;
76765;SDS011;65707;52.362;6.588;2023-05-20T05:50:35;5.13;;;1.65;;
76765;SDS011;65707;52.362;6.588;2023-05-20T05:53:04;9.27;;;2.50;;
76765;SDS011;65707;52.362;6.588;2023-05-20T05:55:32;6.25;;;1.83;;
76765;SDS011;65707;52.362;6.588;2023-05-20T05:58:05;5.82;;;1.88;;
76765;SDS011;65707;52.362;6.588;2023-05-20T06:00:32;10.45;;;2.08;;
76765;SDS011;65707;52.362;6.588;2023-05-20T06:02:58;7.72;;;2.00;;
76765;SDS011;65707;52.362;6.588;2023-05-20T06:05:25;6.25;;;1.80;;
76765;SDS011;65707;52.362;6.588;2023-05-20T06:07:52;6.95;;;1.85;;
76765;SDS011;65707;52.362;6.588;2023-05-20T06:10:22;9.73;;;1.85;;
76765;SDS011;65707;52.362;6.588;2023-05-20T06:12:51;5.65;;;1.98;;
76765;SDS011;65707;52.362;6.588;2023-05-20T06:15:18;6.93;;;2.20;;
76765;SDS011;65707;52.362;6.588;2023-05-20T06:17:48;5.50;;;1.85;;
76765;SDS011;65707;52.362;6.588;2023-05-20T06:20:14;4.95;;;1.48;;
76765;SDS011;65707;52.362;6.588;2023-05-20T06:22:41;9.10;;;2.10;;
76765;SDS011;65707;52.362;6.588;2023-05-20T06:25:08;5.90;;;1.90;;
76765;SDS011;65707;52.362;6.588;2023-05-20T06:27:36;6.90;;;1.50;;
76765;SDS011;65707;52.362;6.588;2023-05-20T06:30:06;5.70;;;1.80;;
76765;SDS011;65707;52.362;6.588;2023-05-20T06:32:36;7.35;;;2.13;;
76765;SDS011;65707;52.362;6.588;2023-05-20T06:35:03;10.02;;;2.55;;
76765;SDS011;65707;52.362;6.588;2023-05-20T06:37:32;5.93;;;2.40;;
76765;SDS011;65707;52.362;6.588;2023-05-20T06:39:59;6.45;;;2.20;;
76765;SDS011;65707;52.362;6.588;2023-05-20T06:42:25;5.97;;;2.17;;
76765;SDS011;65707;52.362;6.588;2023-05-20T06:44:52;7.57;;;2.08;;
76765;SDS011;65707;52.362;6.588;2023-05-20T06:47:20;5.32;;;1.80;;
76765;SDS011;65707;52.362;6.588;2023-05-20T06:49:47;6.95;;;2.10;;
76765;SDS011;65707;52.362;6.588;2023-05-20T06:52:13;8.88;;;2.25;;
76765;SDS011;65707;52.362;6.588;2023-05-20T06:54:45;5.68;;;2.20;;
76765;SDS011;65707;52.362;6.588;2023-05-20T06:57:13;8.15;;;2.28;;
76765;SDS011;65707;52.362;6.588;2023-05-20T06:59:40;7.88;;;2.20;;
76765;SDS011;65707;52.362;6.588;2023-05-20T07:02:10;6.60;;;2.15;;
76765;SDS011;65707;52.362;6.588;2023-05-20T07:04:39;5.97;;;1.90;;
76765;SDS011;65707;52.362;6.588;2023-05-20T07:07:06;13.13;;;2.38;;
76765;SDS011;65707;52.362;6.588;2023-05-20T07:09:33;9.65;;;2.20;;
76765;SDS011;65707;52.362;6.588;2023-05-20T07:11:59;7.80;;;3.05;;
76765;SDS011;65707;52.362;6.588;2023-05-20T07:14:28;13.90;;;2.28;;
76765;SDS011;65707;52.362;6.588;2023-05-20T07:16:59;6.28;;;1.92;;
76765;SDS011;65707;52.362;6.588;2023-05-20T07:19:30;6.03;;;2.30;;
76765;SDS011;65707;52.362;6.588;2023-05-20T07:22:01;6.35;;;2.28;;
76765;SDS011;65707;52.362;6.588;2023-05-20T07:24:28;8.10;;;2.05;;
76765;SDS011;65707;52.362;6.588;2023-05-20T07:26:54;7.05;;;2.25;;
76765;SDS011;65707;52.362;6.588;2023-05-20T07:29:22;6.35;;;2.15;;
76765;SDS011;65707;52.362;6.588;2023-05-20T07:31:51;8.00;;;2.28;;
76765;SDS011;65707;52.362;6.588;2023-05-20T07:34:17;6.05;;;2.10;;
76765;SDS011;65707;52.362;6.588;2023-05-20T07:36:44;6.13;;;2.22;;
76765;SDS011;65707;52.362;6.588;2023-05-20T07:39:13;6.97;;;2.22;;
76765;SDS011;65707;52.362;6.588;2023-05-20T07:41:40;7.05;;;2.63;;
76765;SDS011;65707;52.362;6.588;2023-05-20T07:44:07;9.65;;;2.45;;
76765;SDS011;65707;52.362;6.588;2023-05-20T07:46:35;7.47;;;2.40;;
76765;SDS011;65707;52.362;6.588;2023-05-20T07:49:07;6.45;;;2.45;;
76765;SDS011;65707;52.362;6.588;2023-05-20T07:51:34;6.40;;;2.40;;
76765;SDS011;65707;52.362;6.588;2023-05-20T07:54:01;6.60;;;2.10;;
76765;SDS011;65707;52.362;6.588;2023-05-20T07:56:30;11.85;;;2.33;;
76765;SDS011;65707;52.362;6.588;2023-05-20T07:58:58;6.75;;;2.22;;
76765;SDS011;65707;52.362;6.588;2023-05-20T08:01:28;6.25;;;2.25;;
76765;SDS011;65707;52.362;6.588;2023-05-20T08:03:55;6.35;;;2.30;;
76765;SDS011;65707;52.362;6.588;2023-05-20T08:06:21;7.05;;;2.28;;
76765;SDS011;65707;52.362;6.588;2023-05-20T08:08:49;6.75;;;2.30;;
76765;SDS011;65707;52.362;6.588;2023-05-20T08:11:18;6.72;;;2.17;;
76765;SDS011;65707;52.362;6.588;2023-05-20T08:13:48;8.18;;;2.33;;
76765;SDS011;65707;52.362;6.588;2023-05-20T08:16:14;7.30;;;2.35;;
76765;SDS011;65707;52.362;6.588;2023-05-20T08:18:41;7.30;;;2.17;;
76765;SDS011;65707;52.362;6.588;2023-05-20T08:21:08;8.30;;;2.20;;
76765;SDS011;65707;52.362;6.588;2023-05-20T08:23:35;8.23;;;2.10;;
76765;SDS011;65707;52.362;6.588;2023-05-20T08:26:04;6.28;;;2.17;;
76765;SDS011;65707;52.362;6.588;2023-05-20T08:28:31;6.45;;;2.58;;
76765;SDS011;65707;52.362;6.588;2023-05-20T08:31:04;6.50;;;2.00;;
76765;SDS011;65707;52.362;6.588;2023-05-20T08:33:31;7.30;;;2.10;;
76765;SDS011;65707;52.362;6.588;2023-05-20T08:35:57;5.63;;;2.40;;
76765;SDS011;65707;52.362;6.588;2023-05-20T08:38:27;7.20;;;2.05;;
76765;SDS011;65707;52.362;6.588;2023-05-20T08:40:54;6.50;;;2.00;;
76765;SDS011;65707;52.362;6.588;2023-05-20T08:43:22;7.88;;;2.15;;
76765;SDS011;65707;52.362;6.588;2023-05-20T08:45:52;7.55;;;2.60;;
76765;SDS011;65707;52.362;6.588;2023-05-20T08:48:21;5.93;;;2.00;;
76765;SDS011;65707;52.362;6.588;2023-05-20T08:50:51;8.70;;;2.85;;
76765;SDS011;65707;52.362;6.588;2023-05-20T08:53:18;6.03;;;2.20;;
76765;SDS011;65707;52.362;6.588;2023-05-20T08:55:52;7.28;;;2.35;;
76765;SDS011;65707;52.362;6.588;2023-05-20T08:58:21;10.20;;;2.30;;
76765;SDS011;65707;52.362;6.588;2023-05-20T09:00:48;8.10;;;2.40;;
76765;SDS011;65707;52.362;6.588;2023-05-20T09:03:17;6.45;;;2.03;;
76765;SDS011;65707;52.362;6.588;2023-05-20T09:05:45;5.82;;;2.00;;
76765;SDS011;65707;52.362;6.588;2023-05-20T09:08:24;8.50;;;2.25;;
76765;SDS011;65707;52.362;6.588;2023-05-20T09:10:54;7.93;;;2.28;;
76765;SDS011;65707;52.362;6.588;2023-05-20T09:13:22;7.07;;;2.00;;
76765;SDS011;65707;52.362;6.588;2023-05-20T09:15:49;7.35;;;2.50;;
76765;SDS011;65707;52.362;6.588;2023-05-20T09:18:16;5.75;;;1.95;;
76765;SDS011;65707;52.362;6.588;2023-05-20T09:20:50;5.88;;;1.90;;
76765;SDS011;65707;52.362;6.588;2023-05-20T09:23:19;6.15;;;2.10;;
76765;SDS011;65707;52.362;6.588;2023-05-20T09:25:49;6.38;;;1.80;;
76765;SDS011;65707;52.362;6.588;2023-05-20T09:28:21;7.53;;;2.15;;
76765;SDS011;65707;52.362;6.588;2023-05-20T09:30:49;5.45;;;1.88;;
76765;SDS011;65707;52.362;6.588;2023-05-20T09:33:16;5.85;;;1.63;;
76765;SDS011;65707;52.362;6.588;2023-05-20T09:35:43;7.10;;;2.08;;
76765;SDS011;65707;52.362;6.588;2023-05-20T09:38:11;7.07;;;1.98;;
76765;SDS011;65707;52.362;6.588;2023-05-20T09:40:46;7.47;;;1.95;;
76765;SDS011;65707;52.362;6.588;2023-05-20T09:43:17;6.15;;;2.00;;
76765;SDS011;65707;52.362;6.588;2023-05-20T09:45:47;5.68;;;1.83;;
76765;SDS011;65707;52.362;6.588;2023-05-20T09:48:14;6.32;;;1.95;;
76765;SDS011;65707;52.362;6.588;2023-05-20T09:50:41;10.40;;;2.17;;
76765;SDS011;65707;52.362;6.588;2023-05-20T09:53:09;6.47;;;1.95;;
76765;SDS011;65707;52.362;6.588;2023-05-20T09:55:43;7.05;;;1.98;;
76765;SDS011;65707;52.362;6.588;2023-05-20T09:58:11;6.10;;;1.90;;
76765;SDS011;65707;52.362;6.588;2023-05-20T10:00:39;5.75;;;1.70;;
76765;SDS011;65707;52.362;6.588;2023-05-20T10:03:06;8.98;;;2.20;;
76765;SDS011;65707;52.362;6.588;2023-05-20T10:05:37;6.35;;;1.80;;
76765;SDS011;65707;52.362;6.588;2023-05-20T10:08:13;6.90;;;1.77;;
76765;SDS011;65707;52.362;6.588;2023-05-20T10:11:02;6.45;;;1.90;;
76765;SDS011;65707;52.362;6.588;2023-05-20T10:13:47;8.20;;;1.65;;
76765;SDS011;65707;52.362;6.588;2023-05-20T10:16:33;6.65;;;1.83;;
76765;SDS011;65707;52.362;6.588;2023-05-20T10:19:15;7.35;;;1.80;;
76765;SDS011;65707;52.362;6.588;2023-05-20T10:21:59;7.18;;;2.55;;
76765;SDS011;65707;52.362;6.588;2023-05-20T10:24:30;7.93;;;2.20;;
76765;SDS011;65707;52.362;6.588;2023-05-20T10:27:06;9.20;;;1.92;;
76765;SDS011;65707;52.362;6.588;2023-05-20T10:29:42;6.75;;;1.70;;
76765;SDS011;65707;52.362;6.588;2023-05-20T10:32:22;7.75;;;1.90;;
76765;SDS011;65707;52.362;6.588;2023-05-20T10:34:50;11.85;;;2.20;;
76765;SDS011;65707;52.362;6.588;2023-05-20T10:37:26;7.70;;;2.35;;
76765;SDS011;65707;52.362;6.588;2023-05-20T10:40:09;6.85;;;1.80;;
76765;SDS011;65707;52.362;6.588;2023-05-20T10:42:38;5.85;;;1.70;;
76765;SDS011;65707;52.362;6.588;2023-05-20T10:45:09;5.90;;;1.70;;
76765;SDS011;65707;52.362;6.588;2023-05-20T10:47:40;6.55;;;1.60;;
76765;SDS011;65707;52.362;6.588;2023-05-20T10:50:24;6.38;;;1.92;;
76765;SDS011;65707;52.362;6.588;2023-05-20T10:53:02;7.85;;;1.75;;
76765;SDS011;65707;52.362;6.588;2023-05-20T10:55:45;8.65;;;2.00;;
76765;SDS011;65707;52.362;6.588;2023-05-20T10:58:16;7.80;;;2.20;;
76765;SDS011;65707;52.362;6.588;2023-05-20T11:00:44;6.60;;;1.90;;
76765;SDS011;65707;52.362;6.588;2023-05-20T11:05:43;7.25;;;2.03;;
76765;SDS011;65707;52.362;6.588;2023-05-20T11:08:10;8.13;;;1.95;;
76765;SDS011;65707;52.362;6.588;2023-05-20T11:10:40;6.50;;;1.77;;
76765;SDS011;65707;52.362;6.588;2023-05-20T11:13:10;7.28;;;1.70;;
76765;SDS011;65707;52.362;6.588;2023-05-20T11:15:42;5.68;;;1.45;;
76765;SDS011;65707;52.362;6.588;2023-05-20T11:18:09;6.20;;;1.67;;
76765;SDS011;65707;52.362;6.588;2023-05-20T11:20:39;7.07;;;1.40;;
76765;SDS011;65707;52.362;6.588;2023-05-20T11:23:10;5.40;;;1.50;;
76765;SDS011;65707;52.362;6.588;2023-05-20T11:25:40;7.63;;;1.55;;
76765;SDS011;65707;52.362;6.588;2023-05-20T11:28:17;7.38;;;1.50;;
76765;SDS011;65707;52.362;6.588;2023-05-20T11:30:45;5.55;;;1.63;;
76765;SDS011;65707;52.362;6.588;2023-05-20T11:33:13;6.10;;;1.77;;
76765;SDS011;65707;52.362;6.588;2023-05-20T11:35:43;7.00;;;1.70;;
76765;SDS011;65707;52.362;6.588;2023-05-20T11:38:11;5.93;;;1.70;;
76765;SDS011;65707;52.362;6.588;2023-05-20T11:40:46;6.07;;;2.00;;
76765;SDS011;65707;52.362;6.588;2023-05-20T11:43:20;5.53;;;1.70;;
76765;SDS011;65707;52.362;6.588;2023-05-20T11:45:51;5.93;;;1.30;;
76765;SDS011;65707;52.362;6.588;2023-05-20T11:48:19;5.95;;;1.60;;
76765;SDS011;65707;52.362;6.588;2023-05-20T11:50:46;5.70;;;1.70;;
76765;SDS011;65707;52.362;6.588;2023-05-20T11:53:17;8.35;;;1.70;;
76765;SDS011;65707;52.362;6.588;2023-05-20T11:55:50;8.20;;;1.77;;
76765;SDS011;65707;52.362;6.588;2023-05-20T11:58:19;5.63;;;1.50;;
76765;SDS011;65707;52.362;6.588;2023-05-20T12:00:50;6.00;;;1.23;;
76765;SDS011;65707;52.362;6.588;2023-05-20T12:03:17;8.38;;;1.88;;
76765;SDS011;65707;52.362;6.588;2023-05-20T12:05:44;6.50;;;1.67;;
76765;SDS011;65707;52.362;6.588;2023-05-20T12:08:12;6.80;;;1.60;;
76765;SDS011;65707;52.362;6.588;2023-05-20T12:10:40;7.00;;;1.60;;
76765;SDS011;65707;52.362;6.588;2023-05-20T12:13:16;9.27;;;1.50;;
76765;SDS011;65707;52.362;6.588;2023-05-20T12:15:47;5.75;;;1.83;;
76765;SDS011;65707;52.362;6.588;2023-05-20T12:18:13;6.05;;;1.67;;
76765;SDS011;65707;52.362;6.588;2023-05-20T12:20:43;6.03;;;1.70;;
76765;SDS011;65707;52.362;6.588;2023-05-20T12:23:10;6.70;;;1.75;;
76765;SDS011;65707;52.362;6.588;2023-05-20T12:25:36;4.93;;;1.40;;
76765;SDS011;65707;52.362;6.588;2023-05-20T12:28:04;5.63;;;1.70;;
76765;SDS011;65707;52.362;6.588;2023-05-20T12:30:32;5.82;;;1.70;;
76765;SDS011;65707;52.362;6.588;2023-05-20T12:33:04;5.95;;;1.35;;
76765;SDS011;65707;52.362;6.588;2023-05-20T12:35:35;5.55;;;1.60;;
76765;SDS011;65707;52.362;6.588;2023-05-20T12:38:06;5.50;;;1.40;;
76765;SDS011;65707;52.362;6.588;2023-05-20T12:40:35;7.38;;;1.40;;
76765;SDS011;65707;52.362;6.588;2023-05-20T12:43:06;6.20;;;1.50;;
76765;SDS011;65707;52.362;6.588;2023-05-20T12:45:33;6.35;;;1.20;;
76765;SDS011;65707;52.362;6.588;2023-05-20T12:47:59;7.45;;;2.08;;
76765;SDS011;65707;52.362;6.588;2023-05-20T12:50:27;5.35;;;1.55;;
76765;SDS011;65707;52.362;6.588;2023-05-20T12:52:57;5.30;;;1.45;;
76765;SDS011;65707;52.362;6.588;2023-05-20T12:55:24;6.30;;;1.70;;
76765;SDS011;65707;52.362;6.588;2023-05-20T12:57:53;5.32;;;1.60;;
76765;SDS011;65707;52.362;6.588;2023-05-20T13:00:22;9.15;;;1.60;;
76765;SDS011;65707;52.362;6.588;2023-05-20T13:02:48;4.75;;;1.52;;
76765;SDS011;65707;52.362;6.588;2023-05-20T13:05:18;5.75;;;1.48;;
76765;SDS011;65707;52.362;6.588;2023-05-20T13:07:48;6.40;;;1.60;;
76765;SDS011;65707;52.362;6.588;2023-05-20T13:10:15;6.80;;;1.45;;
76765;SDS011;65707;52.362;6.588;2023-05-20T13:12:42;7.40;;;1.50;;
76765;SDS011;65707;52.362;6.588;2023-05-20T13:15:14;6.30;;;1.48;;
76765;SDS011;65707;52.362;6.588;2023-05-20T13:17:45;7.95;;;1.70;;
76765;SDS011;65707;52.362;6.588;2023-05-20T13:20:12;6.38;;;1.63;;
76765;SDS011;65707;52.362;6.588;2023-05-20T13:22:39;8.60;;;1.67;;
76765;SDS011;65707;52.362;6.588;2023-05-20T13:25:06;7.60;;;1.83;;
76765;SDS011;65707;52.362;6.588;2023-05-20T13:27:34;5.78;;;1.42;;
76765;SDS011;65707;52.362;6.588;2023-05-20T13:30:03;5.78;;;1.60;;
76765;SDS011;65707;52.362;6.588;2023-05-20T13:32:33;5.75;;;1.40;;
76765;SDS011;65707;52.362;6.588;2023-05-20T13:35:04;7.88;;;1.70;;
76765;SDS011;65707;52.362;6.588;2023-05-20T13:37:32;5.35;;;1.50;;
76765;SDS011;65707;52.362;6.588;2023-05-20T13:39:59;5.35;;;1.33;;
76765;SDS011;65707;52.362;6.588;2023-05-20T13:42:27;6.70;;;1.52;;
76765;SDS011;65707;52.362;6.588;2023-05-20T13:44:53;6.65;;;1.45;;
76765;SDS011;65707;52.362;6.588;2023-05-20T13:47:20;8.10;;;1.40;;
76765;SDS011;65707;52.362;6.588;2023-05-20T13:49:47;6.28;;;1.60;;
76765;SDS011;65707;52.362;6.588;2023-05-20T13:52:16;6.90;;;1.38;;
76765;SDS011;65707;52.362;6.588;2023-05-20T13:54:43;5.72;;;1.40;;
76765;SDS011;65707;52.362;6.588;2023-05-20T13:57:11;6.70;;;1.52;;
76765;SDS011;65707;52.362;6.588;2023-05-20T13:59:40;9.18;;;1.80;;
76765;SDS011;65707;52.362;6.588;2023-05-20T14:04:34;5.55;;;1.50;;
76765;SDS011;65707;52.362;6.588;2023-05-20T14:07:03;8.90;;;1.58;;
76765;SDS011;65707;52.362;6.588;2023-05-20T14:09:32;5.72;;;1.67;;
76765;SDS011;65707;52.362;6.588;2023-05-20T14:11:59;8.18;;;1.70;;
76765;SDS011;65707;52.362;6.588;2023-05-20T14:14:26;7.97;;;1.58;;
76765;SDS011;65707;52.362;6.588;2023-05-20T14:16:53;6.25;;;1.50;;
76765;SDS011;65707;52.362;6.588;2023-05-20T14:19:19;5.95;;;1.65;;
76765;SDS011;65707;52.362;6.588;2023-05-20T14:21:48;6.72;;;1.50;;
76765;SDS011;65707;52.362;6.588;2023-05-20T14:24:15;5.00;;;1.30;;
76765;SDS011;65707;52.362;6.588;2023-05-20T14:29:13;5.55;;;1.50;;
76765;SDS011;65707;52.362;6.588;2023-05-20T14:31:40;6.18;;;1.38;;
76765;SDS011;65707;52.362;6.588;2023-05-20T14:34:07;5.97;;;1.40;;
76765;SDS011;65707;52.362;6.588;2023-05-20T14:39:02;5.30;;;1.30;;
76765;SDS011;65707;52.362;6.588;2023-05-20T14:41:29;5.97;;;1.40;;
76765;SDS011;65707;52.362;6.588;2023-05-20T14:44:00;4.72;;;1.30;;
76765;SDS011;65707;52.362;6.588;2023-05-20T14:46:26;5.25;;;1.50;;
76765;SDS011;65707;52.362;6.588;2023-05-20T14:48:53;5.82;;;1.60;;
76765;SDS011;65707;52.362;6.588;2023-05-20T14:51:20;5.72;;;1.80;;
76765;SDS011;65707;52.362;6.588;2023-05-20T14:53:46;5.32;;;1.48;;
76765;SDS011;65707;52.362;6.588;2023-05-20T14:56:13;6.85;;;1.60;;
76765;SDS011;65707;52.362;6.588;2023-05-20T14:58:42;6.63;;;1.40;;
76765;SDS011;65707;52.362;6.588;2023-05-20T15:01:10;5.30;;;1.60;;
76765;SDS011;65707;52.362;6.588;2023-05-20T15:03:36;5.95;;;1.58;;
76765;SDS011;65707;52.362;6.588;2023-05-20T15:06:05;5.75;;;1.40;;
76765;SDS011;65707;52.362;6.588;2023-05-20T15:08:32;5.40;;;1.60;;
76765;SDS011;65707;52.362;6.588;2023-05-20T15:10:58;5.88;;;1.35;;